Time;durP1;ratioP1;P1;durP2;ratioP2;P2;SDS_P1;SDS_P2;PMS_P1;PMS_P2;Temp;Humidity;BMP_temperature;BMP_pressure;BME280_temperature;BME280_humidity;BME280_pressure;Samples;Min_cycle;Max_cycle;Signal;HPM_P1;HPM_P2
2022/08/30 00:03:06;;;;;;;10.70;7.37;;;16.50;99.90;;;;;;4945735;29;20200;-73
2022/08/30 00:05:32;;;;;;;8.43;6.90;;;16.40;99.90;;;;;;4943209;29;20991;-74
2022/08/30 00:07:58;;;;;;;9.70;7.93;;;16.50;99.90;;;;;;4945610;28;20463;-71
2022/08/30 00:10:24;;;;;;;8.87;6.70;;;16.50;99.90;;;;;;4943453;29;20843;-73
2022/08/30 00:12:50;;;;;;;9.10;6.80;;;16.40;99.90;;;;;;4945669;28;20480;-71
2022/08/30 00:15:16;;;;;;;6.60;5.90;;;16.40;99.90;;;;;;4943036;28;20177;-71
2022/08/30 00:17:42;;;;;;;8.97;7.10;;;16.40;99.90;;;;;;4945621;28;20196;-72
2022/08/30 00:20:11;;;;;;;10.00;6.83;;;16.30;99.90;;;;;;4943133;28;20428;-72
2022/08/30 00:22:37;;;;;;;10.73;6.60;;;16.30;99.90;;;;;;4948450;28;20452;-72
2022/08/30 00:25:03;;;;;;;12.73;6.83;;;16.30;99.90;;;;;;4943236;29;20475;-72
2022/08/30 00:27:29;;;;;;;9.97;6.20;;;16.20;99.90;;;;;;4946654;29;20188;-72
2022/08/30 00:29:55;;;;;;;9.27;7.07;;;16.20;99.90;;;;;;4946255;28;20416;-72
2022/08/30 00:32:22;;;;;;;18.77;6.80;;;16.20;99.90;;;;;;4944794;28;20485;-72
2022/08/30 00:34:49;;;;;;;6.87;6.13;;;16.20;99.90;;;;;;4944888;28;20518;-72
2022/08/30 00:37:14;;;;;;;18.23;6.40;;;16.10;99.90;;;;;;4944968;29;20516;-72
2022/08/30 00:39:40;;;;;;;7.63;6.43;;;16.10;99.90;;;;;;4948209;29;20506;-72
2022/08/30 00:42:07;;;;;;;7.60;6.80;;;16.10;99.90;;;;;;4946052;28;20209;-72
2022/08/30 00:44:33;;;;;;;8.27;6.50;;;16.00;99.90;;;;;;4949512;28;20620;-71
2022/08/30 00:46:59;;;;;;;7.80;6.73;;;16.00;99.90;;;;;;4946950;29;20515;-71
2022/08/30 00:49:24;;;;;;;7.80;7.00;;;16.00;99.90;;;;;;4948444;29;20184;-71
2022/08/30 00:51:51;;;;;;;7.57;6.23;;;15.90;99.90;;;;;;4951058;28;20213;-72
2022/08/30 00:54:17;;;;;;;13.90;7.97;;;15.90;99.90;;;;;;4947240;29;20185;-73
2022/08/30 00:56:44;;;;;;;25.77;6.27;;;15.90;99.90;;;;;;4946582;28;20437;-74
2022/08/30 00:59:10;;;;;;;8.60;6.60;;;15.90;99.90;;;;;;4946150;29;20492;-72
2022/08/30 02:31:10;;;;;;;13.47;7.80;;;15.10;99.90;;;;;;5847811;23;21159;-72
2022/08/30 02:33:36;;;;;;;7.73;6.40;;;15.10;99.90;;;;;;4934999;29;20492;-70
2022/08/30 02:36:03;;;;;;;8.37;6.83;;;15.10;99.90;;;;;;4947149;29;20443;-72
2022/08/30 02:38:29;;;;;;;8.23;7.50;;;15.10;99.90;;;;;;4936271;29;20929;-72
2022/08/30 02:40:54;;;;;;;9.37;7.37;;;15.10;99.90;;;;;;4936266;29;20456;-71
2022/08/30 02:43:20;;;;;;;11.53;8.63;;;15.00;99.90;;;;;;4949617;29;20193;-71
2022/08/30 02:45:45;;;;;;;11.37;7.77;;;15.00;99.90;;;;;;4953397;29;20272;-73
2022/08/30 02:48:11;;;;;;;10.20;9.20;;;15.00;99.90;;;;;;4949224;29;20192;-71
2022/08/30 02:50:42;;;;;;;10.23;6.73;;;15.00;99.90;;;;;;4948068;29;20239;-71
2022/08/30 02:53:07;;;;;;;9.30;8.27;;;15.00;99.90;;;;;;4949256;28;20196;-71
2022/08/30 02:55:33;;;;;;;9.93;6.90;;;15.00;99.90;;;;;;4939880;29;20471;-72
2022/08/30 02:57:59;;;;;;;8.80;7.50;;;15.00;99.90;;;;;;4948841;29;20601;-73
2022/08/30 03:00:24;;;;;;;12.87;8.47;;;15.00;99.90;;;;;;4953219;28;20243;-71
2022/08/30 03:02:50;;;;;;;9.37;8.47;;;15.00;99.90;;;;;;4949031;29;20674;-72
2022/08/30 03:05:17;;;;;;;9.00;6.63;;;15.00;99.90;;;;;;4952149;29;20215;-72
2022/08/30 03:07:44;;;;;;;11.40;7.10;;;14.90;99.90;;;;;;4949005;28;20192;-71
2022/08/30 03:10:10;;;;;;;13.60;7.33;;;15.00;99.90;;;;;;4953477;28;20420;-72
2022/08/30 03:12:36;;;;;;;8.13;7.30;;;15.00;99.90;;;;;;4948879;28;20918;-72
2022/08/30 03:15:03;;;;;;;12.20;7.60;;;14.90;99.90;;;;;;4953607;28;20416;-72
2022/08/30 03:17:29;;;;;;;12.10;8.90;;;14.90;99.90;;;;;;4948775;28;20421;-72
2022/08/30 03:19:55;;;;;;;13.43;7.50;;;14.90;99.90;;;;;;4953634;29;20428;-72
2022/08/30 03:22:21;;;;;;;9.60;8.20;;;14.90;99.90;;;;;;4949659;28;20960;-72
2022/08/30 03:24:47;;;;;;;8.70;7.70;;;14.80;99.90;;;;;;4946599;29;20220;-72
2022/08/30 03:27:12;;;;;;;10.20;8.20;;;14.80;99.90;;;;;;4948363;29;20191;-72
2022/08/30 03:29:38;;;;;;;9.63;6.90;;;14.80;99.90;;;;;;4951011;29;20550;-71
2022/08/30 03:32:04;;;;;;;9.37;6.90;;;14.80;99.90;;;;;;4951527;29;20240;-72
2022/08/30 03:34:30;;;;;;;11.97;8.30;;;14.80;99.90;;;;;;4950573;29;20212;-72
2022/08/30 03:36:57;;;;;;;8.57;7.83;;;14.80;99.90;;;;;;4951350;29;20428;-72
2022/08/30 03:39:23;;;;;;;8.67;7.87;;;14.80;99.90;;;;;;4950601;29;20467;-72
2022/08/30 03:41:50;;;;;;;14.37;7.80;;;14.80;99.90;;;;;;4945854;28;20479;-73
2022/08/30 03:44:15;;;;;;;10.37;8.27;;;14.80;99.90;;;;;;4944798;29;20519;-74
2022/08/30 03:46:41;;;;;;;16.03;8.10;;;14.80;99.90;;;;;;4944683;29;20432;-74
2022/08/30 03:49:07;;;;;;;9.13;8.23;;;14.80;99.90;;;;;;4950441;29;20207;-71
2022/08/30 03:51:32;;;;;;;11.03;7.87;;;14.70;99.90;;;;;;4935611;29;20295;-72
2022/08/30 03:53:59;;;;;;;13.00;8.17;;;14.70;99.90;;;;;;4951261;29;21003;-73
2022/08/30 03:56:24;;;;;;;11.60;7.97;;;14.70;99.90;;;;;;4949727;28;20184;-72
2022/08/30 03:58:50;;;;;;;9.13;7.57;;;14.60;99.90;;;;;;4951605;29;20813;-72
2022/08/30 04:01:16;;;;;;;9.33;7.67;;;14.60;99.90;;;;;;4948212;28;21064;-71
2022/08/30 04:03:41;;;;;;;8.73;7.90;;;14.60;99.90;;;;;;4947690;29;20733;-72
2022/08/30 04:06:07;;;;;;;9.40;8.27;;;14.60;99.90;;;;;;4948398;29;20538;-73
2022/08/30 04:08:33;;;;;;;10.23;7.53;;;14.60;99.90;;;;;;4942728;28;20646;-72
2022/08/30 04:10:59;;;;;;;14.83;8.20;;;14.60;99.90;;;;;;4945964;28;20212;-72
2022/08/30 04:13:25;;;;;;;8.07;7.23;;;14.60;99.90;;;;;;4947352;28;20180;-72
2022/08/30 04:15:50;;;;;;;10.43;8.10;;;14.60;99.90;;;;;;4950705;29;20790;-71
2022/08/30 04:18:16;;;;;;;8.40;7.30;;;14.60;99.90;;;;;;4948370;29;20185;-71
2022/08/30 04:20:42;;;;;;;10.67;7.27;;;14.60;99.90;;;;;;4946329;29;20240;-70
2022/08/30 04:23:08;;;;;;;12.77;8.27;;;14.60;99.90;;;;;;4945373;29;20183;-70
2022/08/30 04:25:35;;;;;;;13.87;7.90;;;14.60;99.90;;;;;;4949006;28;20232;-71
2022/08/30 04:28:02;;;;;;;10.70;8.63;;;14.60;99.90;;;;;;4945857;28;20431;-72
2022/08/30 04:30:28;;;;;;;8.47;7.40;;;14.60;99.90;;;;;;4947893;29;20425;-72
2022/08/30 04:32:54;;;;;;;10.83;7.80;;;14.70;99.90;;;;;;4946286;28;20458;-71
2022/08/30 04:35:20;;;;;;;9.33;8.43;;;14.60;99.90;;;;;;4946991;29;20433;-72
2022/08/30 04:37:45;;;;;;;8.00;7.20;;;14.60;99.90;;;;;;4946372;29;20185;-72
2022/08/30 04:40:12;;;;;;;12.67;7.30;;;14.60;99.90;;;;;;4946627;29;20185;-72
2022/08/30 04:42:38;;;;;;;9.60;8.10;;;14.60;99.90;;;;;;4946422;29;20205;-72
2022/08/30 04:45:09;;;;;;;10.47;8.63;;;14.60;99.90;;;;;;4946542;29;20886;-72
2022/08/30 04:47:35;;;;;;;17.40;8.27;;;14.60;99.90;;;;;;4933890;29;20559;-72
2022/08/30 04:50:02;;;;;;;9.53;7.83;;;14.60;99.90;;;;;;4946204;29;20428;-72
2022/08/30 04:52:28;;;;;;;12.30;8.20;;;14.60;99.90;;;;;;4945875;29;20207;-73
2022/08/30 04:54:55;;;;;;;7.70;7.00;;;14.60;99.90;;;;;;4946281;29;20803;-72
2022/08/30 04:57:22;;;;;;;13.37;8.10;;;14.60;99.90;;;;;;4950888;28;20222;-71
2022/08/30 04:59:47;;;;;;;16.93;8.07;;;14.60;99.90;;;;;;4947562;28;20437;-69
2022/08/30 05:02:13;;;;;;;12.20;9.27;;;14.70;99.90;;;;;;4951278;29;20456;-70
2022/08/30 05:05:38;;;;;;;11.60;8.27;;;14.70;99.90;;;;;;4947223;29;20817;-70
2022/08/30 05:07:26;;;;;;;12.07;7.20;;;14.70;99.90;;;;;;4951182;29;20232;-69
2022/08/30 05:09:52;;;;;;;9.60;7.70;;;14.80;99.90;;;;;;4947219;29;20457;-72
2022/08/30 05:12:17;;;;;;;8.67;7.87;;;14.90;99.90;;;;;;4951473;29;20699;-72
2022/08/30 05:14:43;;;;;;;12.23;9.20;;;14.90;99.90;;;;;;4947421;29;20190;-71
2022/08/30 05:17:09;;;;;;;10.17;8.00;;;14.90;99.90;;;;;;4951705;29;20193;-72
2022/08/30 05:19:34;;;;;;;14.30;8.20;;;14.90;99.90;;;;;;4947245;29;20643;-72
2022/08/30 05:22:00;;;;;;;12.87;8.17;;;15.00;99.90;;;;;;4950300;29;20217;-72
2022/08/30 05:24:25;;;;;;;9.10;8.20;;;15.10;99.90;;;;;;4950102;28;20962;-72
2022/08/30 05:26:51;;;;;;;11.27;8.30;;;15.30;99.90;;;;;;4950381;29;20626;-74
2022/08/30 05:29:16;;;;;;;9.03;7.70;;;15.40;99.90;;;;;;4950780;29;20796;-72
2022/08/30 05:31:43;;;;;;;11.57;8.47;;;15.50;99.90;;;;;;4953429;29;20290;-71
2022/08/30 05:34:09;;;;;;;14.10;8.90;;;15.60;99.90;;;;;;4953691;28;20228;-72
2022/08/30 05:36:37;;;;;;;13.27;9.00;;;15.70;99.90;;;;;;4953258;29;20948;-72
2022/08/30 05:39:03;;;;;;;12.37;9.43;;;15.90;99.90;;;;;;4953633;28;20420;-71
2022/08/30 05:41:29;;;;;;;13.90;9.20;;;16.00;99.90;;;;;;4950085;28;20437;-72
2022/08/30 05:43:56;;;;;;;9.60;7.90;;;16.20;99.90;;;;;;4948926;29;20447;-71
2022/08/30 05:46:22;;;;;;;11.90;7.90;;;16.40;99.90;;;;;;4952945;28;20181;-72
2022/08/30 05:48:49;;;;;;;9.90;8.27;;;16.60;99.90;;;;;;4953315;29;20852;-74
2022/08/30 05:51:20;;;;;;;13.77;8.50;;;16.80;99.90;;;;;;4952871;28;20201;-72
2022/08/30 05:53:48;;;;;;;9.30;8.23;;;17.00;99.90;;;;;;4940319;28;20422;-72
2022/08/30 05:56:16;;;;;;;15.63;7.97;;;17.30;99.90;;;;;;4945243;29;20424;-72
2022/08/30 05:58:42;;;;;;;10.37;8.00;;;17.50;99.90;;;;;;4951044;28;20424;-72
2022/08/30 06:01:22;;;;;;;8.77;7.87;;;17.80;99.90;;;;;;4951429;29;20451;-72
2022/08/30 06:03:48;;;;;;;9.40;8.13;;;18.00;99.90;;;;;;4951145;28;20196;-72
2022/08/30 06:06:14;;;;;;;10.20;9.17;;;18.20;99.90;;;;;;4952802;28;20815;-74
2022/08/30 06:08:41;;;;;;;14.07;8.63;;;18.40;99.90;;;;;;4947960;29;20417;-72
2022/08/30 06:11:06;;;;;;;14.20;9.30;;;18.70;99.90;;;;;;4952482;28;20436;-73
2022/08/30 06:13:32;;;;;;;13.40;7.83;;;19.00;99.90;;;;;;4951311;29;20916;-72
2022/08/30 06:15:58;;;;;;;9.97;8.77;;;19.20;99.90;;;;;;4953770;29;20272;-72
2022/08/30 06:18:23;;;;;;;10.47;8.63;;;19.70;99.90;;;;;;4950032;29;20672;-72
2022/08/30 06:20:50;;;;;;;11.30;8.80;;;20.20;99.90;;;;;;4953928;29;20188;-72
2022/08/30 06:23:16;;;;;;;13.50;9.57;;;20.60;99.90;;;;;;4949905;29;20184;-72
2022/08/30 06:25:42;;;;;;;17.07;9.17;;;21.00;99.90;;;;;;4954042;28;20452;-72
2022/08/30 06:28:09;;;;;;;13.23;9.23;;;21.50;99.90;;;;;;4949780;28;20897;-71
2022/08/30 06:30:35;;;;;;;16.43;10.30;;;21.80;99.90;;;;;;4953674;28;20438;-70
2022/08/30 06:33:00;;;;;;;16.90;9.57;;;22.20;99.90;;;;;;4949652;29;20786;-72
2022/08/30 06:35:27;;;;;;;16.40;9.83;;;22.60;99.90;;;;;;4953481;28;20193;-72
2022/08/30 06:37:53;;;;;;;17.33;11.03;;;22.70;99.90;;;;;;4947589;28;20194;-73
2022/08/30 06:40:20;;;;;;;18.53;9.60;;;22.80;99.90;;;;;;4951806;29;20428;-72
2022/08/30 06:42:46;;;;;;;12.90;9.97;;;22.60;99.90;;;;;;4949502;29;20445;-74
2022/08/30 06:45:12;;;;;;;19.57;10.80;;;22.50;99.90;;;;;;4953491;28;20464;-72
2022/08/30 06:47:38;;;;;;;13.03;8.93;;;22.40;99.90;;;;;;4949531;28;20457;-72
2022/08/30 06:50:05;;;;;;;22.53;12.13;;;22.40;99.90;;;;;;4953722;28;20198;-73
2022/08/30 06:52:30;;;;;;;15.20;9.87;;;22.30;99.90;;;;;;4948860;29;20449;-74
2022/08/30 06:54:57;;;;;;;14.20;9.63;;;22.20;99.90;;;;;;4944704;29;20428;-73
2022/08/30 06:57:23;;;;;;;17.43;8.70;;;22.00;99.90;;;;;;4953092;29;20184;-72
2022/08/30 06:59:49;;;;;;;14.23;9.63;;;22.00;99.90;;;;;;4949356;28;20444;-74
2022/08/30 07:02:14;;;;;;;14.33;10.00;;;21.80;99.90;;;;;;4951734;29;20216;-72
2022/08/30 07:04:40;;;;;;;15.10;10.30;;;22.20;99.90;;;;;;4951561;29;20216;-72
2022/08/30 07:07:08;;;;;;;16.53;10.20;;;22.60;99.90;;;;;;4952510;28;20184;-73
2022/08/30 07:09:34;;;;;;;11.97;9.80;;;23.10;99.90;;;;;;4951077;29;20176;-72
2022/08/30 07:12:02;;;;;;;13.20;8.83;;;23.50;99.90;;;;;;4952351;28;20892;-73
2022/08/30 07:14:28;;;;;;;11.80;8.17;;;24.00;99.90;;;;;;4950990;28;20749;-73
2022/08/30 07:16:53;;;;;;;10.57;8.40;;;24.50;99.90;;;;;;4952108;28;20511;-72
2022/08/30 07:19:19;;;;;;;12.57;8.70;;;24.90;99.90;;;;;;4950823;29;21083;-72
2022/08/30 07:21:44;;;;;;;9.27;7.60;;;25.20;99.90;;;;;;4948921;29;20209;-74
2022/08/30 07:24:12;;;;;;;12.23;7.87;;;25.40;99.90;;;;;;4951126;29;20250;-72
2022/08/30 07:26:40;;;;;;;12.13;7.37;;;25.40;99.90;;;;;;4949124;28;20195;-73
2022/08/30 07:29:08;;;;;;;10.50;9.00;;;25.10;99.90;;;;;;4951056;28;20479;-73
2022/08/30 07:31:34;;;;;;;11.60;7.27;;;25.20;99.90;;;;;;4949145;28;20459;-73
2022/08/30 07:34:01;;;;;;;11.67;8.90;;;25.20;99.90;;;;;;4951974;28;20421;-72
2022/08/30 07:36:27;;;;;;;14.53;8.03;;;24.90;99.90;;;;;;4948488;28;20420;-72
2022/08/30 07:38:53;;;;;;;10.60;8.30;;;24.60;99.90;;;;;;4952049;28;20503;-71
2022/08/30 07:41:33;;;;;;;9.70;7.30;;;24.40;99.90;;;;;;4948312;28;20576;-72
2022/08/30 07:43:59;;;;;;;11.47;7.90;;;24.40;99.90;;;;;;4952279;28;20456;-72
2022/08/30 07:46:25;;;;;;;13.63;7.83;;;24.70;99.90;;;;;;4949617;28;20438;-72
2022/08/30 07:48:53;;;;;;;9.50;7.37;;;25.10;99.90;;;;;;4952048;28;20416;-72
2022/08/30 07:51:21;;;;;;;9.40;6.90;;;25.40;99.90;;;;;;4948042;29;20447;-72
2022/08/30 07:53:47;;;;;;;8.57;6.77;;;25.50;99.90;;;;;;4939449;28;20515;-72
2022/08/30 07:56:13;;;;;;;13.87;6.70;;;25.40;99.90;;;;;;4948377;29;20908;-72
2022/08/30 07:58:38;;;;;;;9.67;7.00;;;25.30;99.90;;;;;;4952845;29;20189;-72
2022/08/30 08:01:09;;;;;;;15.17;7.60;;;25.10;99.90;;;;;;4949513;29;20208;-72
2022/08/30 08:03:36;;;;;;;7.53;6.83;;;25.10;99.90;;;;;;4931027;29;20205;-72
2022/08/30 08:06:04;;;;;;;9.90;7.33;;;25.00;99.90;;;;;;4949438;28;20425;-70
2022/08/30 08:08:30;;;;;;;10.53;6.67;;;25.00;99.90;;;;;;4952418;28;20420;-70
2022/08/30 08:10:56;;;;;;;11.30;7.57;;;25.10;99.90;;;;;;4948183;28;20449;-72
2022/08/30 08:13:22;;;;;;;7.30;6.60;;;25.60;99.90;;;;;;4952230;28;20511;-72
2022/08/30 08:15:48;;;;;;;8.87;6.93;;;26.00;99.90;;;;;;4948107;29;20973;-72
2022/08/30 08:18:13;;;;;;;11.10;9.37;;;26.50;99.90;;;;;;4952181;29;20421;-71
2022/08/30 08:20:39;;;;;;;7.80;6.93;;;27.20;99.90;;;;;;4947790;29;20181;-72
2022/08/30 08:23:05;;;;;;;9.50;6.90;;;27.40;99.90;;;;;;4952156;28;20628;-73
2022/08/30 08:25:30;;;;;;;11.83;6.13;;;27.30;99.90;;;;;;4947959;29;20269;-72
2022/08/30 08:27:56;;;;;;;15.73;7.30;;;27.10;99.90;;;;;;4943427;29;20180;-72
2022/08/30 08:30:22;;;;;;;9.73;6.43;;;27.00;99.90;;;;;;4948835;29;20176;-72
2022/08/30 08:32:48;;;;;;;11.33;6.57;;;27.10;99.90;;;;;;4951784;29;20279;-72
2022/08/30 08:35:16;;;;;;;12.57;7.20;;;27.40;99.90;;;;;;4949461;28;20436;-72
2022/08/30 08:37:42;;;;;;;10.00;6.30;;;27.80;99.90;;;;;;4946886;29;20480;-72
2022/08/30 08:40:11;;;;;;;10.57;6.07;;;28.40;99.90;;;;;;4946888;29;20424;-71
2022/08/30 08:42:59;;;;;;;10.87;6.60;;;28.50;99.90;;;;;;4950944;29;20208;-72
2022/08/30 08:45:44;;;;;;;11.83;6.40;;;28.90;99.90;;;;;;4945448;28;20468;-73
2022/08/30 08:48:29;;;;;;;6.97;5.87;;;29.50;99.90;;;;;;4951780;29;20416;-72
2022/08/30 08:53:44;;;;;;;6.90;5.73;;;30.40;99.90;;;;;;4935583;29;20420;-72
2022/08/30 08:56:13;;;;;;;8.20;5.77;;;30.50;99.90;;;;;;4945158;29;20420;-72
2022/08/30 08:58:46;;;;;;;6.07;5.50;;;30.50;99.90;;;;;;4950043;28;20492;-72
2022/08/30 09:01:14;;;;;;;5.57;5.07;;;30.80;99.90;;;;;;4949523;29;20467;-74
2022/08/30 09:03:40;;;;;;;9.30;5.57;;;31.30;99.90;;;;;;4951465;28;20453;-72
2022/08/30 09:06:35;;;;;;;8.60;5.00;;;31.40;99.90;;;;;;4950193;28;20963;-73
2022/08/30 09:09:01;;;;;;;6.60;5.73;;;31.60;99.90;;;;;;4927844;28;20892;-72
2022/08/30 09:11:29;;;;;;;6.47;5.60;;;31.20;99.90;;;;;;4955057;29;20452;-72
2022/08/30 09:13:55;;;;;;;9.53;5.50;;;31.30;99.90;;;;;;4951364;28;20589;-72
2022/08/30 09:16:47;;;;;;;7.13;5.47;;;31.30;99.90;;;;;;4955060;29;20436;-73
2022/08/30 09:19:36;;;;;;;6.80;5.30;;;31.60;99.90;;;;;;4950764;28;20224;-72
2022/08/30 09:22:11;;;;;;;5.17;4.77;;;32.20;99.90;;;;;;4953805;28;20534;-72
2022/08/30 09:24:43;;;;;;;5.33;4.87;;;32.40;99.90;;;;;;4937771;29;20462;-72
2022/08/30 09:27:25;;;;;;;6.80;4.63;;;32.60;99.90;;;;;;4953276;28;20424;-72
2022/08/30 09:29:54;;;;;;;5.80;4.17;;;32.20;99.90;;;;;;4952932;28;20435;-72
2022/08/30 09:32:30;;;;;;;5.07;4.40;;;32.50;99.90;;;;;;4952937;28;20973;-73
2022/08/30 09:34:55;;;;;;;6.73;5.50;;;32.90;99.90;;;;;;4952712;28;20436;-72
2022/08/30 09:37:35;;;;;;;4.63;4.23;;;33.30;99.90;;;;;;4943644;29;20432;-72
2022/08/30 09:40:09;;;;;;;5.60;5.10;;;33.20;99.90;;;;;;4947756;28;20244;-72
2022/08/30 09:42:36;;;;;;;5.10;4.70;;;33.60;99.90;;;;;;4943315;28;20496;-73
2022/08/30 09:45:10;;;;;;;4.87;4.57;;;33.40;99.90;;;;;;4947453;29;20512;-72
2022/08/30 09:47:42;;;;;;;4.50;4.10;;;33.20;99.90;;;;;;4938369;29;20424;-72
2022/08/30 09:50:19;;;;;;;9.40;5.57;;;33.10;99.90;;;;;;4947461;28;20460;-72
2022/08/30 09:53:14;;;;;;;6.20;5.80;;;33.10;99.90;;;;;;4945044;28;20444;-73
2022/08/30 09:56:02;;;;;;;5.70;5.20;;;33.20;99.90;;;;;;4942569;29;20435;-72
2022/08/30 09:58:54;;;;;;;4.80;4.40;;;32.80;99.90;;;;;;4948021;28;20565;-73
2022/08/30 10:01:26;;;;;;;9.27;4.60;;;33.20;99.90;;;;;;4923844;29;20559;-73
2022/08/30 10:04:11;;;;;;;4.83;4.53;;;33.70;99.90;;;;;;4950926;29;20538;-73
2022/08/30 10:06:48;;;;;;;5.27;4.80;;;33.80;99.60;;;;;;4941307;29;20437;-72
2022/08/30 10:09:16;;;;;;;5.17;4.77;;;34.00;99.70;;;;;;4947856;28;20988;-73
2022/08/30 10:11:53;;;;;;;5.40;4.90;;;33.70;99.90;;;;;;4944010;29;20472;-73
2022/08/30 10:14:44;;;;;;;6.10;4.80;;;34.00;99.30;;;;;;4938105;29;20438;-73
2022/08/30 10:17:28;;;;;;;5.43;4.10;;;34.10;98.90;;;;;;4945318;29;20594;-73
2022/08/30 10:20:10;;;;;;;5.50;5.00;;;33.70;99.10;;;;;;4947483;29;20436;-72
2022/08/30 10:22:54;;;;;;;6.57;4.60;;;33.40;99.90;;;;;;4940627;29;20457;-73
2022/08/30 10:25:32;;;;;;;5.70;5.20;;;33.80;97.70;;;;;;4937555;29;21068;-72
2022/08/30 10:28:11;;;;;;;4.67;4.33;;;33.70;97.80;;;;;;4950348;28;20444;-73
2022/08/30 10:30:41;;;;;;;5.57;5.07;;;34.00;98.00;;;;;;4939424;29;20810;-72
2022/08/30 10:33:13;;;;;;;5.10;4.70;;;33.30;98.10;;;;;;4942298;28;20448;-71
2022/08/30 10:35:52;;;;;;;5.23;4.70;;;32.60;99.00;;;;;;4945092;28;20494;-73
2022/08/30 10:38:25;;;;;;;4.50;4.20;;;32.50;98.10;;;;;;4948306;28;20435;-72
2022/08/30 10:41:18;;;;;;;5.50;4.47;;;32.80;98.90;;;;;;4936642;29;20467;-72
2022/08/30 10:44:09;;;;;;;5.40;4.63;;;33.20;98.50;;;;;;4947315;29;20796;-72
2022/08/30 10:46:50;;;;;;;6.60;4.80;;;34.10;98.80;;;;;;4939230;29;20425;-71
2022/08/30 10:49:24;;;;;;;5.17;4.43;;;34.50;98.60;;;;;;4940817;29;20825;-70
2022/08/30 10:51:59;;;;;;;4.80;4.30;;;35.10;96.10;;;;;;4946610;28;20475;-70
2022/08/30 10:54:43;;;;;;;6.70;4.30;;;34.90;93.50;;;;;;4951381;29;20422;-71
2022/08/30 10:57:09;;;;;;;4.63;4.30;;;34.80;93.10;;;;;;4940866;29;20485;-70
2022/08/30 10:59:38;;;;;;;4.77;4.37;;;34.60;93.50;;;;;;4948053;29;20432;-70
2022/08/30 11:02:18;;;;;;;4.77;4.30;;;34.30;92.90;;;;;;4943200;28;20547;-70
2022/08/30 11:05:13;;;;;;;5.17;4.70;;;34.10;92.90;;;;;;4931064;29;20565;-70
2022/08/30 11:08:07;;;;;;;4.70;4.40;;;33.70;92.80;;;;;;4907455;28;20441;-70
2022/08/30 11:10:52;;;;;;;4.73;4.27;;;33.80;94.10;;;;;;4943651;29;20424;-73
2022/08/30 11:13:25;;;;;;;8.67;4.60;;;33.70;92.90;;;;;;4948949;28;20436;-70
2022/08/30 11:16:01;;;;;;;5.40;3.90;;;33.60;92.80;;;;;;4953021;28;20784;-70
2022/08/30 11:18:30;;;;;;;4.87;4.33;;;33.30;93.30;;;;;;4948360;28;20484;-70
2022/08/30 11:21:16;;;;;;;5.03;4.73;;;33.10;93.50;;;;;;4952393;28;20438;-72
2022/08/30 11:24:07;;;;;;;4.83;4.33;;;32.70;93.80;;;;;;4943485;29;20952;-73
2022/08/30 11:26:48;;;;;;;5.13;4.73;;;32.50;93.30;;;;;;4936847;29;20756;-71
2022/08/30 11:29:36;;;;;;;4.70;4.33;;;32.00;94.00;;;;;;4947997;29;20946;-71
2022/08/30 11:32:11;;;;;;;4.67;4.20;;;32.00;93.70;;;;;;4948345;28;20865;-72
2022/08/30 11:34:46;;;;;;;4.67;4.37;;;32.00;94.20;;;;;;4932904;29;20431;-71
2022/08/30 11:37:34;;;;;;;4.13;3.83;;;31.90;93.70;;;;;;4948446;29;20411;-71
2022/08/30 11:40:02;;;;;;;5.43;4.50;;;31.40;93.70;;;;;;4951385;29;20769;-71
2022/08/30 11:42:35;;;;;;;4.17;3.77;;;30.70;93.90;;;;;;4950012;29;21084;-71
2022/08/30 11:45:22;;;;;;;6.57;4.30;;;30.30;95.30;;;;;;4951459;28;20475;-71
2022/08/30 11:47:58;;;;;;;5.10;4.60;;;30.10;95.70;;;;;;4937937;29;20479;-71
2022/08/30 11:50:53;;;;;;;6.77;4.53;;;29.90;95.60;;;;;;4950707;28;20424;-71
2022/08/30 11:53:46;;;;;;;5.70;5.20;;;29.80;95.80;;;;;;4940155;28;20759;-71
2022/08/30 11:56:29;;;;;;;5.53;5.07;;;30.00;96.30;;;;;;4950675;28;20428;-73
2022/08/30 11:59:17;;;;;;;5.23;4.30;;;30.20;95.60;;;;;;4952799;29;20420;-72
2022/08/30 12:01:43;;;;;;;4.27;4.03;;;30.20;96.20;;;;;;4940159;29;20532;-71
2022/08/30 12:04:15;;;;;;;5.03;3.93;;;30.20;95.50;;;;;;4953073;29;20572;-71
2022/08/30 12:06:40;;;;;;;4.80;4.50;;;30.20;97.00;;;;;;4947960;29;20178;-73
2022/08/30 12:09:08;;;;;;;5.07;4.63;;;30.40;95.90;;;;;;4952859;29;20427;-71
2022/08/30 12:11:34;;;;;;;5.67;4.30;;;30.40;96.50;;;;;;4937572;29;20682;-72
2022/08/30 12:14:01;;;;;;;6.47;4.67;;;30.10;96.00;;;;;;4953171;29;20479;-71
2022/08/30 12:16:27;;;;;;;5.03;4.67;;;30.00;95.80;;;;;;4948113;28;20196;-72
2022/08/30 12:19:14;;;;;;;5.00;4.70;;;29.60;95.90;;;;;;4952523;29;20802;-71
2022/08/30 12:21:40;;;;;;;5.57;4.87;;;29.50;96.10;;;;;;4939100;29;20590;-72
2022/08/30 12:24:28;;;;;;;5.20;4.70;;;29.50;96.50;;;;;;4952992;29;20456;-73
2022/08/30 12:26:57;;;;;;;6.13;4.70;;;29.60;96.30;;;;;;4943303;29;20184;-71
2022/08/30 12:29:31;;;;;;;5.03;4.53;;;29.60;97.40;;;;;;4952842;29;20829;-72
2022/08/30 12:32:03;;;;;;;5.20;4.70;;;29.70;98.10;;;;;;4947534;28;20451;-70
2022/08/30 12:34:42;;;;;;;5.13;4.63;;;29.90;98.50;;;;;;4949697;28;20428;-71
2022/08/30 12:37:25;;;;;;;5.00;4.60;;;29.90;98.50;;;;;;4950037;29;20507;-71
2022/08/30 12:40:14;;;;;;;5.63;5.13;;;30.00;98.30;;;;;;4947683;29;20925;-73
2022/08/30 12:42:59;;;;;;;9.73;5.30;;;29.90;98.50;;;;;;4934010;29;20447;-71
2022/08/30 12:45:30;;;;;;;5.80;5.40;;;30.20;98.50;;;;;;4947442;28;21379;-71
2022/08/30 12:48:06;;;;;;;5.10;4.20;;;30.20;98.20;;;;;;4950649;28;20793;-72
2022/08/30 12:50:50;;;;;;;5.70;5.30;;;30.50;97.40;;;;;;4942094;29;20415;-71
2022/08/30 12:53:28;;;;;;;4.93;4.53;;;30.70;97.30;;;;;;4938243;28;20424;-73
2022/08/30 12:56:07;;;;;;;5.50;5.00;;;30.80;96.60;;;;;;4948706;28;20784;-73
2022/08/30 12:58:48;;;;;;;5.33;4.80;;;30.80;96.30;;;;;;4942727;29;20431;-71
2022/08/30 13:01:34;;;;;;;7.40;5.23;;;30.80;96.60;;;;;;4948273;28;20451;-71
2022/08/30 13:04:21;;;;;;;5.23;4.80;;;30.40;96.30;;;;;;4931910;29;20473;-68
2022/08/30 13:07:00;;;;;;;4.40;4.00;;;30.20;96.30;;;;;;4939110;28;20839;-72
2022/08/30 13:09:36;;;;;;;5.23;4.73;;;30.20;97.50;;;;;;4941904;29;20451;-72
2022/08/30 13:12:05;;;;;;;8.43;4.70;;;30.10;96.50;;;;;;4944215;28;20542;-72
2022/08/30 13:14:42;;;;;;;5.70;5.20;;;29.90;97.00;;;;;;4945926;28;20487;-72
2022/08/30 13:17:20;;;;;;;5.00;4.50;;;29.70;97.10;;;;;;4943745;29;20547;-74
2022/08/30 13:20:04;;;;;;;7.57;4.97;;;29.70;97.60;;;;;;4944504;28;20459;-72
2022/08/30 13:22:35;;;;;;;4.73;4.43;;;29.70;97.50;;;;;;4947321;28;20531;-73
2022/08/30 13:25:01;;;;;;;5.33;4.97;;;29.80;97.50;;;;;;4946940;28;20992;-73
2022/08/30 13:27:28;;;;;;;4.73;4.43;;;30.00;97.50;;;;;;4945824;29;20444;-72
2022/08/30 13:29:54;;;;;;;5.30;4.63;;;30.10;97.00;;;;;;4945672;28;20216;-73
2022/08/30 13:32:20;;;;;;;5.23;4.80;;;30.10;96.30;;;;;;4944700;28;20460;-73
2022/08/30 13:34:46;;;;;;;5.73;4.20;;;30.00;96.70;;;;;;4946209;28;20428;-72
2022/08/30 13:37:19;;;;;;;4.60;4.20;;;30.00;96.60;;;;;;4933225;29;20496;-71
2022/08/30 13:39:45;;;;;;;4.87;4.47;;;30.00;96.20;;;;;;4945334;28;20251;-71
2022/08/30 13:42:11;;;;;;;5.53;5.03;;;30.00;96.00;;;;;;4947494;28;20444;-71
2022/08/30 13:44:36;;;;;;;5.40;4.60;;;29.90;97.00;;;;;;4953229;28;20539;-71
2022/08/30 13:47:03;;;;;;;7.03;4.80;;;29.90;96.60;;;;;;4950600;29;20267;-71
2022/08/30 13:49:34;;;;;;;5.63;4.70;;;29.80;96.00;;;;;;4955241;28;20215;-71
2022/08/30 13:52:04;;;;;;;4.57;4.27;;;29.80;96.10;;;;;;4940273;29;20966;-71
2022/08/30 13:54:29;;;;;;;5.13;4.77;;;29.90;96.30;;;;;;4951548;29;20798;-71
2022/08/30 13:56:55;;;;;;;4.47;4.03;;;30.00;95.90;;;;;;4951769;29;20424;-71
2022/08/30 13:59:22;;;;;;;4.73;4.30;;;29.90;94.80;;;;;;4952457;28;20199;-72
2022/08/30 14:01:49;;;;;;;5.60;5.10;;;29.70;95.60;;;;;;4949008;29;20590;-72
2022/08/30 14:04:14;;;;;;;6.07;5.47;;;29.70;96.00;;;;;;4950752;29;20468;-74
2022/08/30 14:06:40;;;;;;;5.47;5.17;;;29.60;95.50;;;;;;4951233;29;20439;-71
2022/08/30 14:09:06;;;;;;;5.23;4.80;;;29.50;95.60;;;;;;4953401;28;20594;-71
2022/08/30 14:11:33;;;;;;;6.60;4.67;;;29.50;95.60;;;;;;4950631;29;20441;-71
2022/08/30 14:13:59;;;;;;;4.93;4.53;;;29.40;95.50;;;;;;4953954;29;20977;-73
2022/08/30 14:16:26;;;;;;;4.77;4.43;;;29.30;95.40;;;;;;4950187;29;20412;-71
2022/08/30 14:18:52;;;;;;;4.63;4.23;;;29.30;96.40;;;;;;4953901;28;20269;-74
2022/08/30 14:21:17;;;;;;;5.47;4.97;;;29.20;96.70;;;;;;4950403;29;20535;-71
2022/08/30 14:23:43;;;;;;;5.10;4.63;;;29.00;97.00;;;;;;4953609;29;20511;-72
2022/08/30 14:26:16;;;;;;;5.17;4.60;;;29.00;97.70;;;;;;4951180;28;20192;-71
2022/08/30 14:28:43;;;;;;;8.30;4.77;;;29.10;98.20;;;;;;4940539;29;20189;-71
2022/08/30 14:31:09;;;;;;;5.60;4.73;;;29.10;98.00;;;;;;4951144;28;20455;-71
2022/08/30 14:33:35;;;;;;;4.93;4.53;;;29.10;97.60;;;;;;4949196;29;20552;-71